Time;durP1;ratioP1;P1;durP2;ratioP2;P2;SDS_P1;SDS_P2;PMS_P1;PMS_P2;Temp;Humidity;BMP_temperature;BMP_pressure;BME280_temperature;BME280_humidity;BME280_pressure;Samples;Min_cycle;Max_cycle;Signal;HPM_P1;HPM_P2
2022/02/21 00:01:57;;;;;;;;;;;;;;;5.49;89.74;99695.72;5136936;27;20042;-36
2022/02/21 00:04:22;;;;;;;12.63;2.20;;;;;;;5.41;89.70;99684.22;5136532;27;19998;-36
2022/02/21 00:06:47;;;;;;;5.33;1.77;;;;;;;5.46;89.68;99683.56;5136360;27;20031;-36
2022/02/21 00:09:13;;;;;;;8.10;2.27;;;;;;;5.49;87.05;99701.88;5137286;27;20027;-36
2022/02/21 00:11:40;;;;;;;9.07;2.28;;;;;;;5.50;87.22;99714.25;5135241;27;20042;-36
2022/02/21 00:14:05;;;;;;;;;;;;;;;5.50;89.59;99713.44;5137383;27;20023;-35
2022/02/21 00:16:30;;;;;;;9.10;2.70;;;;;;;5.44;88.65;99715.16;5136678;27;19907;-36
2022/02/21 00:18:56;;;;;;;15.40;2.53;;;;;;;5.53;89.19;99729.09;5136710;27;20348;-35
2022/02/21 00:21:22;;;;;;;14.48;2.92;;;;;;;5.56;89.46;99739.34;5136176;27;20063;-35
2022/02/21 00:23:47;;;;;;;9.77;2.17;;;;;;;5.54;91.49;99728.03;5137182;27;20045;-35
2022/02/21 00:26:14;;;;;;;14.07;2.47;;;;;;;5.52;90.75;99724.78;5136415;27;20054;-35
2022/02/21 00:28:39;;;;;;;11.70;2.15;;;;;;;5.53;89.37;99731.75;5136515;27;20435;-35
2022/02/21 00:31:05;;;;;;;8.93;2.37;;;;;;;5.53;89.55;99723.72;5136308;27;20035;-35
2022/02/21 00:33:30;;;;;;;11.70;2.43;;;;;;;5.52;88.13;99760.44;5136207;27;20435;-35
2022/02/21 00:35:55;;;;;;;13.03;3.83;;;;;;;5.56;86.62;99767.00;5135717;27;20026;-35
2022/02/21 00:38:21;;;;;;;12.00;2.33;;;;;;;5.51;87.91;99771.38;5135884;27;20028;-35
2022/02/21 00:40:47;;;;;;;;;;;;;;;5.53;87.17;99777.34;5137403;27;20312;-35
2022/02/21 00:43:12;;;;;;;10.43;2.97;;;;;;;5.51;85.65;99790.97;5135815;27;19922;-36
2022/02/21 00:45:37;;;;;;;12.77;3.03;;;;;;;5.43;87.32;99794.78;5136294;27;20106;-36
2022/02/21 00:48:03;;;;;;;12.17;3.13;;;;;;;5.33;86.87;99785.63;5136495;27;20388;-36
2022/02/21 00:50:28;;;;;;;10.82;2.63;;;;;;;5.39;86.79;99792.75;5136495;27;20023;-36
2022/02/21 00:52:54;;;;;;;13.93;2.17;;;;;;;5.43;86.29;99804.69;5135889;27;20038;-35
2022/02/21 00:55:20;;;;;;;11.60;2.67;;;;;;;5.40;84.89;99791.72;5135815;27;20031;-36
2022/02/21 00:57:45;;;;;;;9.55;2.50;;;;;;;5.45;84.70;99807.94;5135780;27;20030;-36
2022/02/21 01:00:10;;;;;;;11.43;3.07;;;;;;;5.46;83.39;99820.31;5135394;27;20030;-35
2022/02/21 01:02:36;;;;;;;10.48;3.00;;;;;;;5.42;85.11;99825.31;5136187;27;20112;-35
2022/02/21 01:05:02;;;;;;;12.80;2.70;;;;;;;5.31;84.64;99817.97;5135518;27;20062;-35
2022/02/21 01:07:28;;;;;;;11.18;3.05;;;;;;;5.39;84.21;99838.34;5135560;27;20049;-36
2022/02/21 01:09:53;;;;;;;12.50;3.10;;;;;;;5.40;84.03;99832.75;5134695;27;20118;-36
2022/02/21 01:12:19;;;;;;;12.27;2.80;;;;;;;5.41;82.82;99833.56;5135456;27;20027;-36
2022/02/21 01:14:44;;;;;;;13.60;2.80;;;;;;;5.30;83.57;99827.06;5135462;27;20425;-36
2022/02/21 01:17:10;;;;;;;9.77;3.10;;;;;;;5.38;83.52;99845.56;5135351;27;20023;-36
2022/02/21 01:19:35;;;;;;;11.95;2.65;;;;;;;5.39;84.24;99849.88;5135645;27;20027;-35
2022/02/21 01:22:03;;;;;;;13.60;3.25;;;;;;;5.39;83.84;99857.09;5135444;27;20078;-36
2022/02/21 01:24:29;;;;;;;13.52;3.15;;;;;;;5.38;82.63;99875.06;5135775;27;20360;-36
2022/02/21 01:26:54;;;;;;;;;;;;;;;5.39;83.32;99873.19;5135781;27;20084;-36
2022/02/21 01:29:20;;;;;;;15.63;3.00;;;;;;;5.33;81.15;99860.69;5135412;27;19915;-35
2022/02/21 01:31:45;;;;;;;11.77;3.00;;;;;;;5.29;81.64;99867.50;5135398;27;20040;-35
2022/02/21 01:34:10;;;;;;;11.87;2.53;;;;;;;5.29;79.80;99867.50;5135546;27;20028;-35
2022/02/21 01:36:36;;;;;;;15.03;3.67;;;;;;;5.26;79.98;99874.13;5135044;27;20467;-35
2022/02/21 01:39:01;;;;;;;13.47;2.70;;;;;;;5.18;80.91;99871.72;5135107;27;20568;-36
2022/02/21 01:41:26;;;;;;;13.20;2.87;;;;;;;5.24;79.82;99878.06;5134979;27;20023;-36
2022/02/21 01:44:05;;;;;;;10.97;2.80;;;;;;;5.16;78.94;99873.78;5135120;27;20398;-36
2022/02/21 01:46:30;;;;;;;15.88;2.70;;;;;;;5.14;78.06;99874.03;5135029;27;20061;-41
2022/02/21 01:48:55;;;;;;;12.60;2.63;;;;;;;5.20;79.44;99885.72;5133509;27;20019;-36
2022/02/21 01:51:21;;;;;;;9.50;2.30;;;;;;;5.18;77.23;99903.09;5135002;27;20023;-36
2022/02/21 01:53:46;;;;;;;12.43;2.80;;;;;;;5.18;76.33;99892.34;5134688;27;20467;-35
2022/02/21 01:56:12;;;;;;;8.70;2.17;;;;;;;5.12;78.32;99894.88;5135600;27;20253;-35
2022/02/21 01:58:37;;;;;;;9.07;1.90;;;;;;;5.07;78.93;99892.00;5134620;27;20099;-35
2022/02/21 02:01:02;;;;;;;12.80;2.37;;;;;;;5.05;77.28;99895.94;5135411;27;20065;-36
2022/02/21 02:03:28;;;;;;;8.40;2.30;;;;;;;4.95;77.71;99883.03;5134517;27;20106;-36
2022/02/21 02:05:53;;;;;;;9.03;2.40;;;;;;;4.99;77.14;99881.56;5134763;27;20111;-37
2022/02/21 02:08:18;;;;;;;8.27;2.03;;;;;;;4.97;77.32;99882.81;5134298;27;20072;-37
2022/02/21 02:10:44;;;;;;;10.33;2.40;;;;;;;4.98;76.06;99889.81;5134808;27;20098;-36
2022/02/21 02:13:09;;;;;;;11.97;2.50;;;;;;;4.97;77.32;99896.22;5134446;27;20425;-35
2022/02/21 02:15:35;;;;;;;7.73;2.03;;;;;;;4.96;77.04;99905.28;5134799;27;20048;-34
2022/02/21 02:18:01;;;;;;;8.63;2.63;;;;;;;4.94;77.49;99904.69;5134137;27;20339;-36
2022/02/21 02:20:26;;;;;;;10.73;2.85;;;;;;;4.96;77.56;99899.94;5134218;27;20057;-36
2022/02/21 02:22:52;;;;;;;11.70;2.73;;;;;;;4.94;78.46;99891.31;5134309;27;20031;-36
2022/02/21 02:25:17;;;;;;;11.13;3.33;;;;;;;4.93;77.41;99885.13;5134967;27;20368;-36
2022/02/21 02:27:43;;;;;;;10.87;3.10;;;;;;;4.90;77.71;99898.94;5135355;28;20123;-36
2022/02/21 02:30:08;;;;;;;7.83;2.27;;;;;;;4.90;77.66;99891.72;5134576;28;20052;-36
2022/02/21 02:32:34;;;;;;;13.38;2.47;;;;;;;4.91;79.23;99906.75;5133963;28;20318;-36
2022/02/21 02:34:59;;;;;;;10.97;2.43;;;;;;;4.93;79.10;99900.34;5134047;28;20061;-36
2022/02/21 02:37:25;;;;;;;9.63;2.27;;;;;;;4.90;79.09;99899.75;5134300;28;20455;-36
2022/02/21 02:39:51;;;;;;;10.15;3.03;;;;;;;4.91;77.62;99912.13;5134705;28;20064;-36
2022/02/21 02:42:16;;;;;;;;;;;;;;;4.96;77.19;99913.31;5134490;28;20046;-36
2022/02/21 02:44:42;;;;;;;10.50;2.38;;;;;;;4.87;74.85;99913.59;5134224;27;20354;-36
2022/02/21 02:47:10;;;;;;;9.13;2.38;;;;;;;4.87;74.33;99902.03;5134308;27;20408;-36
2022/02/21 02:49:36;;;;;;;9.40;2.80;;;;;;;4.96;75.12;99921.38;5134591;28;20031;-36
2022/02/21 02:52:03;;;;;;;6.80;2.22;;;;;;;4.94;73.34;99921.59;5134291;28;20442;-36
2022/02/21 02:54:28;;;;;;;9.98;2.40;;;;;;;4.98;72.37;99920.13;5133956;28;20024;-36
2022/02/21 02:56:53;;;;;;;7.53;2.30;;;;;;;4.96;71.08;99914.16;5133699;28;20087;-36
2022/02/21 02:59:19;;;;;;;7.03;2.17;;;;;;;4.88;72.24;99904.53;5134279;28;20526;-36
2022/02/21 03:01:44;;;;;;;12.73;2.87;;;;;;;4.87;72.72;99896.69;5133908;28;20031;-36
2022/02/21 03:04:09;;;;;;;15.77;3.27;;;;;;;4.97;70.93;99917.66;5133914;28;20033;-36
2022/02/21 03:06:35;;;;;;;11.47;3.17;;;;;;;4.96;70.65;99924.03;5133853;28;20026;-36
2022/02/21 03:09:01;;;;;;;11.15;2.58;;;;;;;4.97;70.86;99926.50;5133792;28;20038;-36
2022/02/21 03:11:27;;;;;;;7.45;2.58;;;;;;;4.93;71.53;99911.06;5133824;28;20106;-36
2022/02/21 03:13:52;;;;;;;8.10;2.37;;;;;;;4.87;72.39;99881.44;5132525;28;20061;-36
2022/02/21 03:16:18;;;;;;;9.82;2.83;;;;;;;4.94;70.40;99907.38;5134086;28;20057;-36
2022/02/21 03:18:44;;;;;;;9.48;2.33;;;;;;;4.81;71.05;99898.38;5133467;28;20031;-36
2022/02/21 03:21:10;;;;;;;12.63;2.72;;;;;;;4.87;70.66;99897.50;5134193;28;20037;-36
2022/02/21 03:23:35;;;;;;;9.77;2.43;;;;;;;4.93;70.68;99897.69;5133435;28;20023;-36
2022/02/21 03:26:00;;;;;;;8.87;2.37;;;;;;;4.93;70.13;99922.63;5133662;28;20066;-36
2022/02/21 03:28:26;;;;;;;12.63;3.00;;;;;;;4.95;69.95;99915.19;5133654;28;20475;-36
2022/02/21 03:30:52;;;;;;;11.60;3.40;;;;;;;4.77;70.71;99894.50;5133638;28;20077;-36
2022/02/21 03:33:17;;;;;;;12.13;2.80;;;;;;;4.73;70.54;99877.19;5135063;27;20050;-36
2022/02/21 03:35:43;;;;;;;10.60;2.80;;;;;;;4.92;70.17;99926.34;5136113;27;20047;-36
2022/02/21 03:38:08;;;;;;;9.50;3.00;;;;;;;4.88;70.11;99925.13;5137802;27;20031;-36
2022/02/21 03:40:33;;;;;;;7.93;2.27;;;;;;;4.91;71.15;99940.78;5137039;27;20157;-36
2022/02/21 03:42:59;;;;;;;10.20;2.40;;;;;;;4.82;72.33;99931.34;5137347;27;20026;-36
2022/02/21 03:45:25;;;;;;;14.93;2.95;;;;;;;4.83;72.05;99935.66;5137631;27;20439;-36
2022/02/21 03:47:51;;;;;;;12.80;3.42;;;;;;;4.69;73.09;99920.72;5137186;27;20024;-36
2022/02/21 03:50:16;;;;;;;10.93;2.58;;;;;;;4.74;74.60;99937.78;5137394;27;20027;-36
2022/02/21 03:52:42;;;;;;;9.67;2.37;;;;;;;4.68;75.31;99943.97;5137049;27;20034;-36
2022/02/21 03:55:08;;;;;;;12.30;2.50;;;;;;;4.65;74.61;99953.28;5137102;27;20035;-36
2022/02/21 03:57:33;;;;;;;12.35;2.80;;;;;;;4.62;75.02;99956.38;5137180;27;20118;-36
2022/02/21 03:59:58;;;;;;;10.77;2.77;;;;;;;4.61;75.33;99951.25;5136683;27;20460;-36
2022/02/21 04:02:24;;;;;;;15.97;3.73;;;;;;;4.57;75.05;99955.38;5137458;27;20023;-36
2022/02/21 04:04:49;;;;;;;14.03;3.33;;;;;;;4.58;75.39;99963.19;5137149;27;20022;-36
2022/02/21 04:07:14;;;;;;;13.63;3.03;;;;;;;4.57;75.11;99956.19;5136679;27;20428;-36
2022/02/21 04:09:40;;;;;;;12.93;3.27;;;;;;;4.52;75.31;99961.38;5135914;27;20032;-36
2022/02/21 04:12:07;;;;;;;17.10;4.13;;;;;;;4.47;76.88;99949.66;5136323;27;20372;-36
2022/02/21 04:14:32;;;;;;;12.18;3.58;;;;;;;4.52;75.54;99947.16;5136679;27;20027;-36
2022/02/21 04:16:58;;;;;;;9.68;2.67;;;;;;;4.48;75.27;99938.72;5136565;27;20027;-36
2022/02/21 04:19:24;;;;;;;10.80;2.80;;;;;;;4.46;75.65;99946.16;5136678;27;20027;-36
2022/02/21 04:21:50;;;;;;;10.90;2.88;;;;;;;4.44;76.41;99964.31;5136225;27;20027;-36
2022/02/21 04:24:16;;;;;;;9.25;2.58;;;;;;;4.40;76.14;99957.72;5136984;27;20049;-36
2022/02/21 04:26:41;;;;;;;11.67;2.93;;;;;;;4.35;77.92;99947.66;5136618;27;20472;-36
2022/02/21 04:29:06;;;;;;;12.33;2.57;;;;;;;4.28;77.59;99957.56;5136656;27;20467;-36
2022/02/21 04:31:32;;;;;;;6.23;1.90;;;;;;;4.22;79.42;99950.38;5136155;27;20019;-36
2022/02/21 04:33:57;;;;;;;8.63;2.30;;;;;;;4.21;79.45;99963.97;5136638;27;20072;-36
2022/02/21 04:36:22;;;;;;;12.23;2.60;;;;;;;4.23;78.46;99959.22;5135968;27;20026;-36
2022/02/21 04:38:48;;;;;;;9.17;2.20;;;;;;;4.19;79.21;99964.16;5135984;27;20152;-36
2022/02/21 04:41:13;;;;;;;9.63;2.27;;;;;;;4.19;78.71;99948.09;5136450;27;20451;-36
2022/02/21 04:43:38;;;;;;;8.57;2.53;;;;;;;4.22;78.03;99953.06;5134682;27;20046;-36
2022/02/21 04:46:04;;;;;;;12.70;3.07;;;;;;;4.16;76.09;99945.88;5136604;27;20035;-36
2022/02/21 04:48:29;;;;;;;12.90;2.90;;;;;;;4.21;76.64;99967.47;5135708;27;20023;-36
2022/02/21 04:50:55;;;;;;;10.60;2.97;;;;;;;4.21;76.87;99964.78;5136489;27;20023;-35
2022/02/21 04:53:22;;;;;;;11.85;3.03;;;;;;;4.20;76.92;99964.97;5135591;27;20288;-35
2022/02/21 04:55:48;;;;;;;9.13;2.15;;;;;;;4.19;77.73;99971.38;5135912;27;20031;-35
2022/02/21 04:58:13;;;;;;;10.18;2.70;;;;;;;4.10;78.01;99954.75;5135754;27;20027;-35
2022/02/21 05:00:39;;;;;;;9.73;2.28;;;;;;;4.13;77.57;99955.13;5136331;27;20114;-35
2022/02/21 05:03:04;;;;;;;15.00;2.83;;;;;;;4.14;77.29;99959.44;5134444;27;20031;-35
2022/02/21 05:05:29;;;;;;;9.27;3.07;;;;;;;4.12;77.61;99979.44;5135651;27;20288;-35
2022/02/21 05:07:55;;;;;;;9.93;2.43;;;;;;;4.12;75.57;99974.09;5136093;27;20028;-35
2022/02/21 05:10:20;;;;;;;9.40;2.37;;;;;;;3.98;74.13;99940.38;5135605;27;20031;-35
2022/02/21 05:12:46;;;;;;;10.10;2.03;;;;;;;4.13;73.13;99975.72;5134508;27;20034;-35
2022/02/21 05:15:12;;;;;;;7.27;2.00;;;;;;;4.13;74.66;99965.00;5135803;27;20039;-35
2022/02/21 05:17:37;;;;;;;;;;;;;;;4.18;74.25;99959.84;5135823;27;20034;-35
2022/02/21 05:20:05;;;;;;;8.77;2.40;;;;;;;4.13;73.79;99962.34;5134673;27;19994;-35
2022/02/21 05:22:31;;;;;;;9.52;2.50;;;;;;;4.16;73.11;99963.78;5135591;27;20060;-35
2022/02/21 05:24:56;;;;;;;12.07;2.67;;;;;;;4.13;73.35;99965.00;5134927;27;20110;-35
2022/02/21 05:27:22;;;;;;;12.70;2.63;;;;;;;4.06;73.47;99967.72;5134672;27;20414;-35
2022/02/21 05:29:47;;;;;;;9.70;2.33;;;;;;;4.12;73.34;99958.03;5135671;27;20038;-35
2022/02/21 05:32:13;;;;;;;9.20;2.37;;;;;;;4.13;73.55;99951.63;5135327;27;20027;-35
2022/02/21 05:34:38;;;;;;;11.50;2.37;;;;;;;4.06;73.99;99937.47;5135190;27;20421;-35
2022/02/21 05:37:05;;;;;;;9.83;2.80;;;;;;;4.08;73.47;99935.41;5135007;27;20027;-35
2022/02/21 05:39:31;;;;;;;9.48;2.40;;;;;;;4.15;73.02;99946.91;5135228;27;20035;-36
2022/02/21 05:41:56;;;;;;;12.50;2.90;;;;;;;4.21;72.42;99946.06;5134863;27;20083;-36
2022/02/21 05:44:21;;;;;;;12.20;2.87;;;;;;;4.13;73.74;99938.25;5135418;27;20035;-36
2022/02/21 05:46:47;;;;;;;10.77;2.47;;;;;;;4.18;73.74;99930.41;5134709;27;20027;-37
2022/02/21 05:49:12;;;;;;;11.87;2.60;;;;;;;4.20;73.25;99939.06;5134782;27;20480;-36
2022/02/21 05:51:38;;;;;;;11.48;2.78;;;;;;;4.21;73.24;99946.06;5135246;27;20034;-36
2022/02/21 05:54:04;;;;;;;11.57;3.53;;;;;;;4.20;74.37;99946.25;5134444;27;20015;-36
2022/02/21 05:56:29;;;;;;;8.53;2.17;;;;;;;4.20;74.47;99933.72;5134928;27;20050;-36
2022/02/21 05:58:55;;;;;;;10.73;2.47;;;;;;;4.20;74.28;99948.94;5134737;27;20400;-36
2022/02/21 06:01:20;;;;;;;11.68;2.42;;;;;;;4.11;74.36;99941.16;5134686;27;20042;-36
2022/02/21 06:03:46;;;;;;;12.67;2.73;;;;;;;4.12;73.64;99929.41;5134805;27;20023;-36
2022/02/21 06:06:11;;;;;;;13.10;3.33;;;;;;;4.21;74.50;99948.75;5134186;27;20505;-36
2022/02/21 06:08:37;;;;;;;8.83;2.40;;;;;;;4.21;75.13;99951.41;5134593;27;20023;-36
2022/02/21 06:11:02;;;;;;;10.87;2.90;;;;;;;4.21;74.84;99959.44;5134778;27;20076;-36
2022/02/21 06:13:27;;;;;;;11.17;3.37;;;;;;;4.24;73.90;99956.31;5134436;27;20455;-36
2022/02/21 06:15:53;;;;;;;11.20;3.37;;;;;;;4.20;72.85;99931.03;5134063;27;20425;-36
2022/02/21 06:18:18;;;;;;;10.50;2.33;;;;;;;4.28;72.97;99936.13;5134400;27;20329;-36
2022/02/21 06:20:43;;;;;;;10.83;3.10;;;;;;;4.26;73.89;99938.22;5134631;27;20102;-36
2022/02/21 06:23:09;;;;;;;11.33;3.17;;;;;;;4.24;74.95;99940.28;5134344;27;20041;-36
2022/02/21 06:25:35;;;;;;;10.43;2.90;;;;;;;4.22;73.57;99942.34;5134189;27;20019;-36
2022/02/21 06:28:01;;;;;;;11.70;3.00;;;;;;;4.17;74.04;99944.84;5134012;28;20039;-36
2022/02/21 06:30:26;;;;;;;8.25;2.00;;;;;;;4.25;73.75;99941.13;5134195;28;20106;-36
2022/02/21 06:32:51;;;;;;;12.53;2.83;;;;;;;4.24;74.34;99940.28;5134523;28;20030;-36
2022/02/21 06:35:17;;;;;;;13.50;2.67;;;;;;;4.26;73.51;99948.09;5134702;27;20035;-36
2022/02/21 06:37:46;;;;;;;11.50;2.27;;;;;;;4.27;73.47;99942.53;5134400;28;20451;-36
2022/02/21 06:40:13;;;;;;;8.07;2.35;;;;;;;4.25;73.99;99958.00;5134630;28;20059;-36
2022/02/21 06:42:38;;;;;;;8.38;2.70;;;;;;;4.25;73.36;99968.69;5134149;28;20072;-36
2022/02/21 06:45:05;;;;;;;10.83;2.47;;;;;;;4.28;72.39;99952.19;5134056;28;20451;-36
2022/02/21 06:47:30;;;;;;;12.40;2.67;;;;;;;4.27;73.10;99947.88;5133630;28;20047;-35
2022/02/21 06:49:56;;;;;;;12.45;2.60;;;;;;;4.25;72.97;99928.56;5132733;28;20510;-35
2022/02/21 06:52:22;;;;;;;8.70;1.85;;;;;;;4.29;72.36;99932.41;5133703;28;20509;-35
2022/02/21 06:54:52;;;;;;;9.23;2.30;;;;;;;4.28;73.18;99938.00;5134001;28;20028;-35
2022/02/21 06:57:21;;;;;;;12.30;2.40;;;;;;;4.25;72.70;99933.91;5134526;28;20035;-35
2022/02/21 06:59:46;;;;;;;8.50;2.55;;;;;;;4.25;73.91;99936.59;5134277;28;20029;-35
2022/02/21 07:02:12;;;;;;;9.90;3.23;;;;;;;4.22;73.77;99942.34;5134023;28;20467;-36
2022/02/21 07:04:37;;;;;;;9.40;2.00;;;;;;;4.20;74.37;99938.22;5134296;28;20056;-36
2022/02/21 07:07:02;;;;;;;10.43;2.90;;;;;;;4.19;75.13;99937.41;5134054;27;20110;-36
2022/02/21 07:09:28;;;;;;;11.63;2.37;;;;;;;4.14;76.09;99937.22;5137797;27;20071;-35
2022/02/21 07:11:53;;;;;;;9.90;2.57;;;;;;;4.11;76.27;99932.31;5137889;27;20272;-36
2022/02/21 07:14:21;;;;;;;14.03;3.03;;;;;;;4.07;77.36;99925.72;5138628;27;20019;-36
2022/02/21 07:16:47;;;;;;;10.27;2.67;;;;;;;3.89;78.09;99894.28;5137974;27;20616;-36
2022/02/21 07:19:12;;;;;;;12.00;2.87;;;;;;;4.09;78.36;99929.00;5137463;27;20027;-36
2022/02/21 07:21:37;;;;;;;8.10;2.57;;;;;;;4.11;78.65;99935.81;5138222;27;20037;-36
2022/02/21 07:24:03;;;;;;;10.30;2.33;;;;;;;4.03;78.44;99893.22;5135852;27;20038;-36
2022/02/21 07:26:28;;;;;;;7.90;2.33;;;;;;;4.14;78.25;99915.81;5138029;27;20062;-36
2022/02/21 07:28:53;;;;;;;11.17;2.90;;;;;;;4.14;78.88;99935.38;5137247;27;20466;-36
2022/02/21 07:31:19;;;;;;;10.77;2.90;;;;;;;4.19;78.65;99918.69;5138093;27;20034;-36
2022/02/21 07:33:44;;;;;;;10.70;2.60;;;;;;;4.22;78.23;99920.13;5137741;27;20031;-36
2022/02/21 07:36:09;;;;;;;9.60;2.03;;;;;;;4.27;78.14;99926.47;5137405;27;20107;-36
2022/02/21 07:38:35;;;;;;;11.83;2.53;;;;;;;4.29;78.50;99912.88;5137088;27;20062;-36
2022/02/21 07:41:01;;;;;;;9.83;2.57;;;;;;;4.27;77.14;99909.59;5137546;27;20034;-36
2022/02/21 07:43:27;;;;;;;;;;;;;;;4.36;77.60;99914.50;5137373;27;20031;-36
2022/02/21 07:45:53;;;;;;;8.27;2.72;;;;;;;4.33;77.21;99925.63;5137940;27;20004;-36
2022/02/21 07:48:18;;;;;;;6.55;1.92;;;;;;;4.41;77.81;99915.72;5137092;27;20081;-36
2022/02/21 07:50:44;;;;;;;9.50;2.53;;;;;;;4.46;76.45;99907.88;5137145;27;20463;-36
2022/02/21 07:53:10;;;;;;;6.50;2.20;;;;;;;4.49;75.77;99905.59;5136618;27;20026;-36
2022/02/21 07:55:36;;;;;;;15.93;3.42;;;;;;;4.47;75.75;99912.19;5137317;27;20027;-36
2022/02/21 07:58:02;;;;;;;6.75;1.92;;;;;;;4.48;76.20;99908.47;5136690;27;20035;-36
2022/02/21 08:00:27;;;;;;;10.20;2.77;;;;;;;4.38;75.85;99888.31;5137048;27;20031;-36
2022/02/21 08:02:52;;;;;;;9.37;2.13;;;;;;;4.45;76.12;99916.94;5137381;27;20279;-36
2022/02/21 08:05:18;;;;;;;10.00;2.80;;;;;;;4.49;76.19;99910.09;5137323;27;20050;-36
2022/02/21 08:07:44;;;;;;;11.37;2.40;;;;;;;4.52;77.06;99905.16;5137112;27;20042;-36
2022/02/21 08:10:10;;;;;;;10.15;2.38;;;;;;;4.51;77.17;99894.66;5137335;27;20336;-36
2022/02/21 08:12:36;;;;;;;10.38;2.25;;;;;;;4.55;77.52;99896.69;5136697;27;20038;-36
2022/02/21 08:15:01;;;;;;;9.23;2.97;;;;;;;4.60;77.52;99890.69;5136710;27;20035;-36
2022/02/21 08:17:27;;;;;;;7.93;2.20;;;;;;;4.63;77.23;99879.53;5135362;27;20304;-36
2022/02/21 08:19:53;;;;;;;11.02;2.45;;;;;;;4.68;76.72;99882.38;5136135;27;20050;-36
2022/02/21 08:22:18;;;;;;;8.48;2.45;;;;;;;4.59;76.63;99873.81;5136331;27;20030;-36
2022/02/21 08:24:44;;;;;;;9.40;2.30;;;;;;;4.72;77.13;99875.56;5136715;27;20455;-36
2022/02/21 08:27:10;;;;;;;13.10;3.30;;;;;;;4.78;77.40;99873.88;5136374;27;20043;-36
2022/02/21 08:29:36;;;;;;;11.07;2.70;;;;;;;4.84;77.83;99847.06;5136842;27;20043;-36
2022/02/21 08:32:01;;;;;;;9.60;2.22;;;;;;;4.88;77.80;99855.47;5136271;27;20124;-36
2022/02/21 08:34:28;;;;;;;9.77;2.07;;;;;;;4.82;76.24;99843.75;5135951;27;20054;-36
2022/02/21 08:36:54;;;;;;;9.18;2.50;;;;;;;4.95;76.96;99850.88;5135878;27;20030;-36
2022/02/21 08:39:19;;;;;;;9.73;2.13;;;;;;;4.96;76.62;99839.13;5135918;27;20027;-36
2022/02/21 08:41:45;;;;;;;7.00;2.20;;;;;;;4.95;76.20;99844.72;5136063;27;20083;-36
2022/02/21 08:44:10;;;;;;;6.73;2.13;;;;;;;4.85;76.67;99823.78;5136305;27;20111;-36
2022/02/21 08:46:36;;;;;;;9.63;2.40;;;;;;;4.72;76.98;99824.69;5136231;27;20095;-36
2022/02/21 08:49:03;;;;;;;7.65;1.95;;;;;;;4.78;76.17;99822.97;5136255;27;20096;-36
2022/02/21 08:51:28;;;;;;;8.85;2.40;;;;;;;4.74;75.90;99845.91;5135829;27;20106;-36
2022/02/21 08:53:54;;;;;;;10.27;2.30;;;;;;;4.69;76.57;99841.19;5135576;27;20030;-36
2022/02/21 08:56:19;;;;;;;9.30;2.35;;;;;;;4.66;76.56;99841.63;5135532;27;20475;-36
2022/02/21 08:58:45;;;;;;;10.10;2.40;;;;;;;4.63;77.41;99820.63;5135787;27;20065;-36
2022/02/21 09:01:10;;;;;;;10.00;3.07;;;;;;;4.61;77.67;99828.06;5136320;27;20051;-36
2022/02/21 09:03:35;;;;;;;10.80;2.50;;;;;;;4.61;77.91;99822.72;5135343;27;20149;-36
2022/02/21 09:06:01;;;;;;;9.33;2.17;;;;;;;4.57;78.65;99803.56;5135908;27;20054;-36
2022/02/21 09:08:31;;;;;;;9.13;1.88;;;;;;;4.56;78.65;99801.13;5135541;27;20105;-36
2022/02/21 09:10:56;;;;;;;9.30;2.40;;;;;;;4.53;79.91;99818.44;5135432;27;20023;-36
2022/02/21 09:13:21;;;;;;;9.67;2.40;;;;;;;4.52;80.64;99813.28;5135720;27;20038;-36
2022/02/21 09:15:47;;;;;;;8.73;2.20;;;;;;;4.51;81.46;99792.91;5135983;27;20031;-36
2022/02/21 09:18:12;;;;;;;9.30;2.77;;;;;;;4.35;81.12;99786.25;5135303;27;20023;-36
2022/02/21 09:20:38;;;;;;;8.15;2.17;;;;;;;4.45;81.69;99809.84;5134981;27;20023;-36
2022/02/21 09:23:04;;;;;;;8.98;2.55;;;;;;;4.40;83.25;99775.72;5135254;27;20023;-36
2022/02/21 09:25:30;;;;;;;;;;;;;;;4.39;85.34;99809.69;5135663;27;20035;-36
2022/02/21 09:27:55;;;;;;;13.05;2.60;;;;;;;4.17;87.11;99805.69;5136236;27;20301;-36
2022/02/21 09:30:21;;;;;;;12.07;2.58;;;;;;;3.99;89.46;99776.16;5134974;27;20103;-36
2022/02/21 09:32:46;;;;;;;12.85;2.63;;;;;;;3.96;90.14;99785.44;5135270;27;20375;-36
2022/02/21 09:35:12;;;;;;;7.60;2.43;;;;;;;3.85;91.52;99784.22;5135101;27;20363;-36
2022/02/21 09:37:38;;;;;;;8.43;2.37;;;;;;;3.82;92.85;99790.03;5135340;27;20383;-36
2022/02/21 09:40:09;;;;;;;8.95;2.25;;;;;;;3.73;93.37;99779.78;5134623;27;20023;-36
2022/02/21 09:42:37;;;;;;;14.73;3.38;;;;;;;3.72;93.90;99784.31;5134803;27;20038;-36
2022/02/21 09:45:05;;;;;;;10.95;3.28;;;;;;;3.65;94.98;99759.44;5134962;27;20490;-36
2022/02/21 09:47:31;;;;;;;10.60;2.78;;;;;;;3.70;95.50;99773.00;5134796;27;20023;-36
2022/02/21 09:49:57;;;;;;;13.57;2.60;;;;;;;3.73;95.59;99761.06;5135625;27;20030;-36
2022/02/21 09:52:22;;;;;;;17.80;3.90;;;;;;;3.68;95.94;99753.69;5134676;27;20019;-36
2022/02/21 09:54:47;;;;;;;13.13;2.50;;;;;;;3.62;96.37;99733.16;5134804;27;20050;-36
2022/02/21 09:57:16;;;;;;;12.90;3.27;;;;;;;3.75;96.57;99764.34;5134658;27;20055;-36
2022/02/21 09:59:41;;;;;;;11.68;2.80;;;;;;;3.77;96.41;99754.25;5135454;27;20034;-36
2022/02/21 10:02:17;;;;;;;13.03;3.10;;;;;;;3.79;97.01;99739.63;5134719;27;20019;-36
2022/02/21 10:04:43;;;;;;;8.68;2.80;;;;;;;3.70;97.13;99734.75;5134701;27;20272;-36
2022/02/21 10:07:08;;;;;;;12.87;2.73;;;;;;;3.81;97.20;99750.13;5134732;27;20031;-36
2022/02/21 10:09:39;;;;;;;13.83;3.03;;;;;;;3.79;97.20;99738.81;5134994;27;20038;-35
2022/02/21 10:12:06;;;;;;;12.68;3.13;;;;;;;3.82;97.34;99755.25;5134762;27;20062;-35
2022/02/21 10:14:32;;;;;;;16.35;3.72;;;;;;;3.79;98.90;99715.56;5134936;27;20031;-36
2022/02/21 10:17:02;;;;;;;16.33;3.42;;;;;;;3.76;97.99;99718.69;5133042;27;20145;-35
2022/02/21 10:19:40;;;;;;;15.77;3.53;;;;;;;3.78;98.60;99737.19;5134298;27;20027;-35
2022/02/21 10:22:11;;;;;;;11.55;3.50;;;;;;;3.78;99.52;99727.28;5134567;27;20399;-36
2022/02/21 10:24:42;;;;;;;12.07;2.88;;;;;;;3.79;99.94;99720.91;5134195;28;20019;-35
2022/02/21 10:27:09;;;;;;;12.73;3.17;;;;;;;3.81;98.96;99726.88;5134290;27;20058;-35
2022/02/21 10:29:37;;;;;;;10.40;2.90;;;;;;;3.81;99.25;99737.56;5134801;27;20054;-36
2022/02/21 10:32:08;;;;;;;11.10;3.63;;;;;;;3.80;99.33;99746.59;5134397;28;20027;-36
2022/02/21 10:34:34;;;;;;;14.02;3.10;;;;;;;3.83;99.92;99751.53;5133891;28;20031;-36
2022/02/21 10:36:59;;;;;;;13.20;2.65;;;;;;;3.83;99.68;99740.03;5134093;28;20027;-36
2022/02/21 10:39:25;;;;;;;11.70;2.83;;;;;;;3.85;100.00;99760.16;5134228;28;20023;-36
2022/02/21 10:41:55;;;;;;;10.35;3.00;;;;;;;3.78;100.00;99719.28;5135037;27;20260;-36
2022/02/21 10:44:28;;;;;;;16.73;3.72;;;;;;;3.86;100.00;99761.00;5138593;27;20027;-36
2022/02/21 10:47:13;;;;;;;10.93;3.00;;;;;;;3.81;100.00;99748.28;5138223;27;20027;-36
2022/02/21 10:49:46;;;;;;;14.32;3.70;;;;;;;3.84;100.00;99747.81;5138740;27;20111;-36
2022/02/21 10:52:17;;;;;;;12.52;3.45;;;;;;;3.80;100.00;99749.28;5138481;27;20079;-36
2022/02/21 10:54:43;;;;;;;11.32;2.83;;;;;;;3.89;100.00;99744.50;5138149;27;20092;-36
2022/02/21 10:57:10;;;;;;;15.57;3.72;;;;;;;3.70;100.00;99714.16;5138073;27;20027;-36
2022/02/21 10:59:37;;;;;;;11.68;4.15;;;;;;;3.89;100.00;99739.16;5138663;27;20027;-37
2022/02/21 11:02:03;;;;;;;12.85;3.70;;;;;;;3.93;100.00;99744.91;5138318;27;20039;-36
2022/02/21 11:04:30;;;;;;;14.30;3.50;;;;;;;3.86;100.00;99721.72;5138026;27;20023;-36
2022/02/21 11:06:57;;;;;;;16.80;4.07;;;;;;;3.94;100.00;99741.19;5138035;27;20023;-36
2022/02/21 11:09:28;;;;;;;17.83;4.43;;;;;;;4.02;100.00;99732.94;5137905;27;20034;-36
2022/02/21 11:11:57;;;;;;;13.02;3.22;;;;;;;4.02;100.00;99731.06;5138310;27;20107;-36
2022/02/21 11:14:26;;;;;;;15.05;3.95;;;;;;;3.90;100.00;99705.22;5138678;27;20367;-36
2022/02/21 11:16:53;;;;;;;12.50;3.45;;;;;;;4.02;100.00;99706.19;5137339;27;20059;-36
2022/02/21 11:19:18;;;;;;;;;;;;;;;4.17;100.00;99717.38;5138159;27;20020;-36
2022/02/21 11:21:46;;;;;;;14.02;3.28;;;;;;;4.14;100.00;99721.31;5137572;27;20321;-36
2022/02/21 11:24:13;;;;;;;14.10;3.25;;;;;;;4.19;100.00;99723.34;5137563;27;20050;-36
2022/02/21 11:26:51;;;;;;;13.85;3.25;;;;;;;4.18;100.00;99719.03;5138095;27;20047;-36
2022/02/21 11:29:34;;;;;;;13.32;3.80;;;;;;;4.13;100.00;99697.44;5137469;27;20023;-36
2022/02/21 11:32:00;;;;;;;14.10;3.38;;;;;;;4.16;100.00;99699.69;5138202;27;20023;-36
2022/02/21 11:34:25;;;;;;;18.20;4.97;;;;;;;4.27;100.00;99696.31;5137069;27;20474;-36